createdAt,value
2019-04-11T00:00:19.628Z,67.80
2019-04-11T00:02:55.271Z,67.90
2019-04-11T00:05:28.593Z,67.20
2019-04-11T00:08:01.752Z,67.30
2019-04-11T00:10:35.353Z,68.10
2019-04-11T00:13:18.974Z,67.60
2019-04-11T00:15:44.479Z,66.70
2019-04-11T00:18:16.645Z,65.60
2019-04-11T00:20:49.015Z,66.30
2019-04-11T00:23:20.244Z,66.70
2019-04-11T00:25:52.789Z,65.90
2019-04-11T00:28:24.061Z,65.00
2019-04-11T00:30:56.669Z,66.00
2019-04-11T00:33:29.873Z,65.80
2019-04-11T00:36:01.218Z,66.00
2019-04-11T00:38:34.131Z,65.70
2019-04-11T00:41:07.869Z,65.20
2019-04-11T00:43:42.194Z,65.40
2019-04-11T00:46:13.218Z,64.70
2019-04-11T00:48:48.111Z,64.30
2019-04-11T00:51:20.364Z,64.20
2019-04-11T00:53:54.467Z,64.20
2019-04-11T00:56:26.173Z,64.60
2019-04-11T00:58:58.203Z,64.40
2019-04-11T01:01:33.616Z,64.50
2019-04-11T01:04:05.784Z,64.20
2019-04-11T01:06:38.363Z,64.60
2019-04-11T01:09:13.243Z,63.90
2019-04-11T01:11:45.793Z,63.70
2019-04-11T01:14:18.496Z,63.60
2019-04-11T01:16:52.680Z,63.20
2019-04-11T01:19:25.286Z,63.00
2019-04-11T01:21:59.233Z,62.80
2019-04-11T01:24:31.521Z,63.20
2019-04-11T01:27:03.518Z,62.90
2019-04-11T01:29:37.771Z,62.60
2019-04-11T01:32:10.541Z,62.20
2019-04-11T01:34:42.872Z,62.00
2019-04-11T01:37:13.723Z,62.00
2019-04-11T01:39:47.395Z,62.00
2019-04-11T01:42:22.825Z,61.80
2019-04-11T01:44:55.339Z,61.80
2019-04-11T01:47:28.936Z,61.90
2019-04-11T01:50:01.387Z,61.70
2019-04-11T01:52:34.158Z,61.20
2019-04-11T01:55:05.695Z,60.80
2019-04-11T01:57:38.112Z,60.40
2019-04-11T02:00:12.225Z,59.50
2019-04-11T02:02:46.434Z,59.20
2019-04-11T02:05:20.890Z,59.80
2019-04-11T02:07:55.282Z,59.30
2019-04-11T02:10:26.557Z,59.70
2019-04-11T02:12:59.522Z,59.10
2019-04-11T02:15:32.418Z,58.90
2019-04-11T02:18:07.479Z,58.50
2019-04-11T02:20:41.086Z,57.80
2019-04-11T02:23:17.164Z,57.10
2019-04-11T02:25:52.530Z,57.30
2019-04-11T02:28:24.427Z,56.90
2019-04-11T02:30:57.052Z,55.20
2019-04-11T02:33:28.438Z,55.50
2019-04-11T02:36:05.084Z,55.60
2019-04-11T02:38:37.324Z,55.40
2019-04-11T02:41:12.509Z,55.50
2019-04-11T02:43:44.436Z,53.70
2019-04-11T02:46:24.591Z,54.30
2019-04-11T02:48:49.891Z,54.40
2019-04-11T02:51:24.819Z,53.90
2019-04-11T02:53:58.803Z,54.00
2019-04-11T02:56:31.239Z,54.00
2019-04-11T02:59:04.474Z,52.70
2019-04-11T03:01:37.046Z,52.20
2019-04-11T03:04:12.733Z,52.10
2019-04-11T03:06:45.758Z,51.10
2019-04-11T03:09:19.841Z,50.30
2019-04-11T03:11:51.878Z,49.50
2019-04-11T03:14:27.621Z,49.20
2019-04-11T03:17:08.213Z,49.40
2019-04-11T03:19:44.046Z,49.90
2019-04-11T03:22:05.644Z,49.90
2019-04-11T03:24:38.382Z,49.30
2019-04-11T03:27:12.219Z,49.10
2019-04-11T03:29:45.249Z,48.20
2019-04-11T03:33:06.405Z,48.20
2019-04-11T03:35:34.949Z,48.30
2019-04-11T03:37:49.939Z,48.30
2019-04-11T03:40:19.525Z,47.10
2019-04-11T03:42:42.963Z,47.00
2019-04-11T03:45:31.112Z,47.20
2019-04-11T03:47:59.163Z,47.30
2019-04-11T03:50:18.827Z,46.40
2019-04-11T03:52:49.326Z,46.30
2019-04-11T03:55:23.404Z,45.30
2019-04-11T03:57:58.493Z,45.70
2019-04-11T04:00:35.465Z,44.80
2019-04-11T04:03:03.741Z,43.20
2019-04-11T04:05:36.819Z,44.20
2019-04-11T04:08:10.756Z,43.70
2019-04-11T04:10:43.641Z,44.90
2019-04-11T04:13:20.577Z,44.50
2019-04-11T04:16:04.182Z,41.90
2019-04-11T04:18:27.699Z,42.40
2019-04-11T04:21:01.922Z,41.00
2019-04-11T04:23:35.948Z,42.20
2019-04-11T04:26:12.255Z,43.20
2019-04-11T04:28:45.326Z,43.10
2019-04-11T04:31:18.511Z,41.30
2019-04-11T04:33:53.411Z,40.00
2019-04-11T04:36:27.266Z,40.00
2019-04-11T04:38:59.266Z,39.70
2019-04-11T04:41:39.420Z,37.40
2019-04-11T04:44:06.462Z,38.30
2019-04-11T04:46:57.198Z,36.70
2019-04-11T04:49:15.315Z,37.90
2019-04-11T04:51:47.823Z,37.80
2019-04-11T04:54:21.996Z,36.40
2019-04-11T04:56:55.174Z,38.20
2019-04-11T04:59:27.852Z,37.20
2019-04-11T05:02:01.552Z,37.90
2019-04-11T05:04:36.076Z,37.90
2019-04-11T05:07:09.623Z,37.20
2019-04-11T05:09:42.661Z,37.60
2019-04-11T05:12:16.299Z,36.70
2019-04-11T05:14:51.996Z,36.60
2019-04-11T05:17:28.761Z,36.40
2019-04-11T05:20:00.239Z,35.70
2019-04-11T05:22:33.205Z,34.70
2019-04-11T05:25:07.035Z,35.10
2019-04-11T05:27:39.801Z,35.00
2019-04-11T05:30:12.303Z,36.10
2019-04-11T05:32:45.211Z,33.60
2019-04-11T05:35:18.524Z,34.20
2019-04-11T05:37:51.418Z,34.50
2019-04-11T05:40:23.943Z,33.30
2019-04-11T05:42:57.527Z,34.30
2019-04-11T05:45:30.153Z,34.40
2019-04-11T05:48:03.520Z,32.00
2019-04-11T05:50:36.131Z,31.70
2019-04-11T05:53:10.384Z,32.80
2019-04-11T05:55:45.292Z,32.40
2019-04-11T05:58:15.992Z,32.00
2019-04-11T06:00:49.783Z,32.30
2019-04-11T06:03:22.055Z,33.90
2019-04-11T06:05:59.911Z,33.70
2019-04-11T06:08:30.286Z,33.10
2019-04-11T06:11:04.681Z,32.50
2019-04-11T06:13:39.128Z,34.10
2019-04-11T06:16:14.607Z,34.40
2019-04-11T06:18:50.048Z,35.00
2019-04-11T06:21:24.276Z,34.90
2019-04-11T06:24:01.409Z,34.10
2019-04-11T06:26:41.141Z,32.80
2019-04-11T06:29:20.179Z,32.30
2019-04-11T06:31:51.519Z,32.80
2019-04-11T06:34:25.538Z,32.50
2019-04-11T06:36:59.222Z,32.90
2019-04-11T06:39:33.449Z,32.80
2019-04-11T06:42:05.897Z,33.20
2019-04-11T06:44:39.778Z,33.80
2019-04-11T06:47:16.688Z,34.60
2019-04-11T06:49:50.992Z,33.20
2019-04-11T06:52:24.341Z,33.90
2019-04-11T06:54:59.409Z,33.80
2019-04-11T06:57:32.703Z,33.70
2019-04-11T07:00:07.279Z,33.90
2019-04-11T07:02:40.753Z,34.40
2019-04-11T07:05:16.525Z,33.40
2019-04-11T07:07:51.498Z,33.50
2019-04-11T07:10:24.596Z,34.40
2019-04-11T07:12:59.327Z,33.30
2019-04-11T07:15:33.640Z,32.80
2019-04-11T07:18:09.757Z,33.30
2019-04-11T07:20:43.479Z,32.90
2019-04-11T07:23:17.663Z,33.40
2019-04-11T07:25:50.228Z,34.50
2019-04-11T07:28:25.254Z,35.40
2019-04-11T07:31:00.334Z,35.00
2019-04-11T07:33:35.386Z,34.00
2019-04-11T07:36:10.386Z,34.00
2019-04-11T07:38:43.366Z,34.40
2019-04-11T07:41:17.705Z,33.90
2019-04-11T07:43:49.991Z,34.00
2019-04-11T07:46:27.221Z,33.40
2019-04-11T07:48:59.501Z,33.60
2019-04-11T07:51:32.216Z,33.00
2019-04-11T07:54:07.390Z,33.70
2019-04-11T07:56:41.925Z,33.50
2019-04-11T07:59:14.971Z,34.00
2019-04-11T08:01:47.050Z,33.90
2019-04-11T08:04:21.675Z,34.20
2019-04-11T08:06:54.453Z,33.70
2019-04-11T08:09:26.992Z,34.00
2019-04-11T08:12:00.438Z,34.40
2019-04-11T08:14:34.847Z,34.20
2019-04-11T08:17:09.277Z,32.10
2019-04-11T08:19:42.970Z,32.70
2019-04-11T08:22:17.065Z,31.50
2019-04-11T08:24:51.150Z,31.60
2019-04-11T08:27:25.327Z,32.30
2019-04-11T08:29:58.854Z,31.70
2019-04-11T08:32:33.794Z,32.30
2019-04-11T08:35:06.624Z,32.10
2019-04-11T08:37:43.441Z,31.20
2019-04-11T08:40:17.718Z,32.40
2019-04-11T08:42:50.866Z,32.00
2019-04-11T08:45:24.229Z,32.30
2019-04-11T08:47:58.777Z,32.10
2019-04-11T08:50:31.851Z,31.30
2019-04-11T08:53:04.706Z,31.00
2019-04-11T08:55:48.653Z,30.90
2019-04-11T08:58:14.079Z,31.30
2019-04-11T09:00:49.000Z,30.90
2019-04-11T09:03:24.385Z,30.80
2019-04-11T09:05:58.175Z,31.10
2019-04-11T09:08:34.355Z,31.30
2019-04-11T09:11:08.626Z,31.40
2019-04-11T09:13:44.002Z,31.50
2019-04-11T09:16:17.200Z,31.50
2019-04-11T09:18:52.441Z,32.80
2019-04-11T09:21:26.531Z,33.30
2019-04-11T09:23:58.043Z,31.40
2019-04-11T09:26:32.102Z,30.50
2019-04-11T09:29:06.927Z,31.30
2019-04-11T09:31:41.731Z,30.20
2019-04-11T09:34:16.142Z,31.00
2019-04-11T09:36:49.636Z,31.40
2019-04-11T09:39:23.458Z,30.40
2019-04-11T09:41:57.210Z,30.60
2019-04-11T09:44:31.126Z,31.10
2019-04-11T09:47:05.434Z,31.90
2019-04-11T09:49:39.603Z,32.10
2019-04-11T09:52:16.223Z,30.70
2019-04-11T09:54:50.599Z,30.40
2019-04-11T09:57:24.871Z,30.90
2019-04-11T10:00:01.938Z,30.90
2019-04-11T10:02:41.840Z,31.20
2019-04-11T10:05:15.878Z,31.00
2019-04-11T10:07:48.624Z,31.00
2019-04-11T10:10:24.288Z,31.90
2019-04-11T10:12:58.894Z,32.50
2019-04-11T10:15:33.734Z,32.80
2019-04-11T10:18:19.562Z,31.60
2019-04-11T10:20:45.786Z,32.20
2019-04-11T10:23:18.700Z,32.60
2019-04-11T10:25:51.650Z,31.70
2019-04-11T10:28:25.523Z,32.50
2019-04-11T10:30:58.922Z,32.60
2019-04-11T10:33:31.049Z,32.10
2019-04-11T10:36:07.127Z,31.90
2019-04-11T10:38:44.774Z,32.60
2019-04-11T10:41:18.673Z,33.40
2019-04-11T10:43:53.678Z,33.60
2019-04-11T10:46:31.331Z,34.00
2019-04-11T10:49:05.295Z,34.10
2019-04-11T10:51:40.714Z,34.40
2019-04-11T10:54:15.612Z,34.00
2019-04-11T10:56:49.790Z,35.00
2019-04-11T10:59:26.739Z,34.90
2019-04-11T11:02:00.164Z,35.10
2019-04-11T11:04:36.644Z,35.40
2019-04-11T11:07:13.001Z,35.30
2019-04-11T11:09:46.626Z,35.00
2019-04-11T11:15:11.352Z,35.20
2019-04-11T11:18:12.639Z,35.40
2019-04-11T11:20:26.808Z,35.20
2019-04-11T11:22:55.872Z,35.70
2019-04-11T11:25:30.932Z,35.20
2019-04-11T11:28:05.701Z,35.50
2019-04-11T11:30:39.917Z,35.60
2019-04-11T11:33:18.151Z,36.00
2019-04-11T11:35:51.967Z,35.60
2019-04-11T11:38:26.055Z,35.80
2019-04-11T11:41:02.473Z,35.80
2019-04-11T11:43:35.114Z,36.20
2019-04-11T11:46:07.709Z,36.20
2019-04-11T11:48:46.404Z,36.90
2019-04-11T11:51:17.280Z,37.30
2019-04-11T11:53:51.018Z,37.10
2019-04-11T11:56:24.847Z,37.20
2019-04-11T11:59:01.111Z,37.30
2019-04-11T12:01:33.946Z,37.40
2019-04-11T12:04:08.595Z,37.20
2019-04-11T12:06:44.596Z,37.30
2019-04-11T12:09:18.249Z,37.40
2019-04-11T12:11:53.725Z,37.50
2019-04-11T12:14:27.576Z,37.50
2019-04-11T12:17:03.241Z,37.70
2019-04-11T12:19:44.674Z,37.50
2019-04-11T12:22:09.023Z,37.50
2019-04-11T12:24:42.987Z,37.40
2019-04-11T12:27:16.777Z,37.70
2019-04-11T12:29:50.087Z,38.50
2019-04-11T12:32:22.428Z,37.90
2019-04-11T12:34:55.481Z,38.40
2019-04-11T12:37:29.547Z,37.90
2019-04-11T12:40:04.364Z,37.80
2019-04-11T12:42:38.027Z,37.80
2019-04-11T12:45:13.538Z,37.80
2019-04-11T12:47:46.923Z,38.00
2019-04-11T12:50:20.465Z,38.00
2019-04-11T12:52:55.762Z,38.30
2019-04-11T12:55:29.884Z,38.90
2019-04-11T12:58:04.691Z,38.50
2019-04-11T13:00:38.507Z,38.70
2019-04-11T13:03:11.835Z,39.10
2019-04-11T13:05:45.735Z,39.30
2019-04-11T13:08:19.107Z,39.50
2019-04-11T13:10:51.092Z,39.40
2019-04-11T13:13:25.585Z,40.10
2019-04-11T13:15:58.997Z,39.80
2019-04-11T13:18:32.825Z,39.90
2019-04-11T13:21:07.786Z,40.00
2019-04-11T13:23:41.246Z,41.40
2019-04-11T13:26:14.696Z,40.90
2019-04-11T13:28:48.242Z,41.00
2019-04-11T13:31:22.250Z,41.50
2019-04-11T13:33:55.937Z,41.30
2019-04-11T13:36:29.367Z,41.40
2019-04-11T13:39:04.229Z,41.10
2019-04-11T13:41:39.347Z,41.10
2019-04-11T13:44:11.949Z,41.40
2019-04-11T13:46:45.898Z,42.00
2019-04-11T13:49:20.264Z,42.20
2019-04-11T13:51:55.378Z,42.50
2019-04-11T13:54:28.751Z,43.10
2019-04-11T13:57:02.734Z,43.40
2019-04-11T13:59:39.209Z,42.70
2019-04-11T14:02:17.859Z,43.00
2019-04-11T14:04:54.464Z,42.90
2019-04-11T14:07:29.934Z,43.00
2019-04-11T14:10:04.076Z,43.10
2019-04-11T14:12:37.938Z,43.20
2019-04-11T14:15:11.271Z,43.40
2019-04-11T14:17:45.112Z,43.50
2019-04-11T14:20:28.679Z,44.50
2019-04-11T14:22:52.628Z,44.90
2019-04-11T14:25:25.924Z,45.50
2019-04-11T14:27:59.161Z,44.90
2019-04-11T14:30:39.026Z,45.50
2019-04-11T14:33:14.035Z,45.00
2019-04-11T14:35:47.904Z,45.70
2019-04-11T14:38:22.799Z,45.60
2019-04-11T14:41:01.575Z,45.90
2019-04-11T14:43:28.568Z,46.20
2019-04-11T14:46:06.880Z,46.30
2019-04-11T14:48:41.618Z,46.30
2019-04-11T14:51:17.825Z,46.10
2019-04-11T14:53:51.716Z,46.00
2019-04-11T14:56:27.145Z,46.30
2019-04-11T14:59:01.042Z,46.00
2019-04-11T15:01:35.729Z,46.00
2019-04-11T15:04:08.580Z,46.50
2019-04-11T15:06:44.576Z,45.70
2019-04-11T15:09:20.268Z,45.60
2019-04-11T15:11:54.018Z,45.40
2019-04-11T15:14:27.652Z,45.60
2019-04-11T15:17:00.858Z,45.30
2019-04-11T15:19:35.419Z,45.10
2019-04-11T15:22:09.166Z,45.10
2019-04-11T15:24:44.378Z,45.20
2019-04-11T15:27:19.762Z,45.00
2019-04-11T15:29:53.804Z,45.30
2019-04-11T15:32:27.233Z,45.40
2019-04-11T15:35:01.330Z,45.40
2019-04-11T15:37:32.739Z,45.50
2019-04-11T15:40:06.714Z,45.80
2019-04-11T15:42:40.576Z,45.60
2019-04-11T15:45:15.294Z,45.90
2019-04-11T15:47:49.359Z,45.60
2019-04-11T15:50:25.109Z,46.00
2019-04-11T15:52:57.560Z,47.00
2019-04-11T15:55:32.318Z,46.30
2019-04-11T15:58:07.562Z,46.50
2019-04-11T16:00:43.609Z,47.50
2019-04-11T16:03:16.455Z,47.10
2019-04-11T16:05:50.064Z,47.10
2019-04-11T16:08:26.247Z,47.20
2019-04-11T16:11:03.044Z,48.10
2019-04-11T16:13:40.263Z,48.50
2019-04-11T16:16:12.771Z,48.40
2019-04-11T16:18:49.258Z,48.20
2019-04-11T16:21:24.285Z,48.10
2019-04-11T16:23:57.721Z,47.90
2019-04-11T16:26:30.253Z,47.90
2019-04-11T16:29:08.551Z,48.20
2019-04-11T16:31:40.162Z,48.50
2019-04-11T16:34:15.842Z,48.80
2019-04-11T16:36:49.264Z,48.60
2019-04-11T16:39:22.801Z,48.80
2019-04-11T16:42:01.057Z,49.30
2019-04-11T16:44:34.765Z,50.10
2019-04-11T16:47:08.701Z,50.50
2019-04-11T16:49:43.912Z,50.70
2019-04-11T16:52:15.068Z,50.10
2019-04-11T16:54:46.221Z,49.70
2019-04-11T16:57:18.729Z,50.10
2019-04-11T16:59:50.328Z,51.10
2019-04-11T17:02:24.922Z,51.30
2019-04-11T17:04:57.511Z,51.40
2019-04-11T17:07:31.435Z,51.60
2019-04-11T17:12:57.537Z,52.10
2019-04-11T17:15:32.713Z,51.40
2019-04-11T17:18:04.874Z,52.00
2019-04-11T17:20:39.573Z,51.80
2019-04-11T17:23:10.014Z,51.70
2019-04-11T17:25:42.196Z,51.90
2019-04-11T17:28:14.698Z,51.80
2019-04-11T17:30:47.036Z,52.00
2019-04-11T17:33:19.293Z,51.90
2019-04-11T17:35:50.442Z,52.20
2019-04-11T17:38:25.300Z,52.80
2019-04-11T17:40:57.243Z,53.10
2019-04-11T17:43:28.399Z,52.40
2019-04-11T17:46:00.850Z,52.20
2019-04-11T17:48:34.986Z,52.30
2019-04-11T17:51:09.602Z,52.30
2019-04-11T17:53:40.937Z,52.70
2019-04-11T17:56:13.348Z,52.60
2019-04-11T17:58:45.628Z,52.90
2019-04-11T18:01:18.254Z,52.80
2019-04-11T18:03:50.499Z,53.50
2019-04-11T18:06:22.758Z,53.20
2019-04-11T18:08:56.335Z,53.90
2019-04-11T18:11:27.526Z,53.00
2019-04-11T18:14:00.750Z,53.20
2019-04-11T18:16:36.764Z,54.50
2019-04-11T18:19:11.057Z,54.90
2019-04-11T18:21:43.384Z,54.20
2019-04-11T18:24:19.738Z,54.90
2019-04-11T18:26:51.941Z,55.20
2019-04-11T18:29:25.300Z,55.00
2019-04-11T18:31:56.643Z,54.90
2019-04-11T18:34:31.734Z,55.50
2019-04-11T18:37:09.501Z,55.40
2019-04-11T18:39:41.465Z,55.70
2019-04-11T18:42:12.721Z,55.80
2019-04-11T18:44:47.353Z,55.70
2019-04-11T18:47:18.634Z,55.50
2019-04-11T18:49:53.275Z,55.40
2019-04-11T18:52:27.681Z,55.20
2019-04-11T18:54:59.136Z,54.80
2019-04-11T18:57:31.482Z,55.00
2019-04-11T19:00:07.099Z,54.80
2019-04-11T19:02:37.944Z,54.80
2019-04-11T19:05:10.893Z,55.20
2019-04-11T19:07:44.837Z,54.90
2019-04-11T19:10:16.484Z,55.00
2019-04-11T19:12:48.589Z,55.50
2019-04-11T19:15:28.347Z,55.40
2019-04-11T19:18:06.116Z,56.10
2019-04-11T19:20:37.371Z,55.90
2019-04-11T19:23:12.435Z,56.00
2019-04-11T19:25:46.601Z,56.30
2019-04-11T19:28:19.781Z,56.20
2019-04-11T19:30:58.845Z,56.50
2019-04-11T19:33:34.006Z,56.80
2019-04-11T19:36:07.377Z,56.40
2019-04-11T19:38:42.977Z,56.30
2019-04-11T19:41:17.302Z,56.80
2019-04-11T19:43:49.137Z,56.80
2019-04-11T19:46:20.465Z,57.00
2019-04-11T19:48:57.049Z,57.30
2019-04-11T19:51:28.972Z,57.40
2019-04-11T19:54:02.950Z,56.90
2019-04-11T19:56:37.549Z,57.00
2019-04-11T19:59:08.639Z,57.20
2019-04-11T20:01:45.312Z,57.10
2019-04-11T20:04:19.133Z,57.10
2019-04-11T20:06:52.794Z,57.20
2019-04-11T20:09:25.826Z,57.10
2019-04-11T20:11:57.936Z,57.20
2019-04-11T20:14:34.067Z,56.80
2019-04-11T20:17:04.406Z,56.80
2019-04-11T20:19:36.605Z,56.80
2019-04-11T20:22:08.642Z,57.10
2019-04-11T20:24:45.992Z,56.70
2019-04-11T20:27:13.437Z,56.60
2019-04-11T20:29:46.167Z,56.20
2019-04-11T20:32:18.618Z,56.90
2019-04-11T20:34:51.269Z,57.00
2019-04-11T20:37:24.614Z,57.50
2019-04-11T20:39:56.953Z,57.20
2019-04-11T20:42:29.057Z,57.10
2019-04-11T20:45:01.556Z,56.70
2019-04-11T20:47:32.913Z,57.50
2019-04-11T20:50:07.642Z,57.50
2019-04-11T20:52:41.113Z,57.50
2019-04-11T20:55:13.053Z,56.60
2019-04-11T20:57:45.236Z,56.70
2019-04-11T21:00:17.996Z,56.60
2019-04-11T21:02:50.260Z,56.60
2019-04-11T21:05:21.718Z,56.20
2019-04-11T21:07:53.919Z,57.00
2019-04-11T21:10:26.233Z,56.20
2019-04-11T21:13:00.501Z,56.10
2019-04-11T21:15:32.467Z,56.10
2019-04-11T21:18:06.416Z,56.20
2019-04-11T21:20:39.623Z,57.80
2019-04-11T21:23:23.640Z,58.10
2019-04-11T21:25:45.709Z,58.00
2019-04-11T21:28:16.811Z,57.90
2019-04-11T21:30:52.204Z,59.20
2019-04-11T21:33:23.419Z,59.20
2019-04-11T21:35:57.575Z,59.50
2019-04-11T21:38:30.923Z,58.80
2019-04-11T21:41:01.321Z,59.80
2019-04-11T21:43:35.846Z,60.40
2019-04-11T21:46:06.810Z,60.40
2019-04-11T21:48:39.355Z,59.90
2019-04-11T21:51:11.339Z,60.00
2019-04-11T21:53:45.138Z,60.50
2019-04-11T21:56:18.631Z,61.50
2019-04-11T21:58:50.718Z,61.50
2019-04-11T22:01:24.269Z,60.90
2019-04-11T22:03:57.680Z,60.50
2019-04-11T22:06:30.328Z,61.80
2019-04-11T22:09:04.867Z,61.60
2019-04-11T22:11:33.090Z,62.00
2019-04-11T22:14:05.117Z,62.20
2019-04-11T22:16:44.487Z,61.30
2019-04-11T22:19:15.894Z,61.40
2019-04-11T22:21:46.975Z,62.40
2019-04-11T22:24:18.426Z,61.60
2019-04-11T22:26:50.611Z,61.80
2019-04-11T22:29:24.833Z,61.00
2019-04-11T22:31:57.357Z,61.00
2019-04-11T22:34:30.145Z,61.10
2019-04-11T22:37:02.110Z,60.60
2019-04-11T22:39:34.661Z,61.90
2019-04-11T22:42:06.883Z,61.70
2019-04-11T22:44:39.003Z,61.40
2019-04-11T22:47:11.109Z,62.00
2019-04-11T22:49:43.350Z,61.00
2019-04-11T22:52:14.491Z,60.30
2019-04-11T22:54:47.010Z,60.10
2019-04-11T22:57:19.338Z,61.50
2019-04-11T22:59:51.142Z,61.60
2019-04-11T23:02:24.284Z,63.10
2019-04-11T23:04:55.321Z,62.90
2019-04-11T23:07:27.834Z,62.20
2019-04-11T23:10:00.057Z,62.20
2019-04-11T23:12:32.218Z,61.50
2019-04-11T23:15:04.027Z,61.30
2019-04-11T23:17:37.945Z,60.70
2019-04-11T23:20:14.444Z,60.80
2019-04-11T23:22:45.533Z,60.60
2019-04-11T23:25:20.122Z,61.40
2019-04-11T23:27:54.035Z,61.20
2019-04-11T23:30:25.189Z,60.60
2019-04-11T23:33:00.965Z,61.20
2019-04-11T23:35:32.022Z,61.90
2019-04-11T23:38:03.235Z,63.30
2019-04-11T23:40:35.166Z,62.20
2019-04-11T23:43:07.316Z,61.40
2019-04-11T23:45:41.274Z,61.30
2019-04-11T23:48:13.692Z,61.10
2019-04-11T23:50:45.032Z,61.20
2019-04-11T23:53:16.160Z,61.90
2019-04-11T23:55:49.683Z,61.80
2019-04-11T23:58:21.786Z,61.20
